logo tempoitalia

Diretta Meteo Valentine Miller Fld, Stati Uniti (USA)lunedì 31 agosto ore 00:52

Mappa
Sereno 16 °C Sereno 24 Ore: T.min 16 T.max 33
Ponente Nord-Ovest Km/h 9.3 Punto di rugiada: 12 °C Umidità: 77% Visibilità: 10 Km
Il sole sorge alle: 07:06 Il sole tramonta alle: 20:18
31 Agosto 2026 00:52 tempo osservato: Sereno Sereno 16 77 1014 vento: Nord NO 9.3
30 Agosto 2026 23:52 tempo osservato: Sereno Sereno 18 67 1014 vento: Nord NO 18.5
30 Agosto 2026 22:52 tempo osservato: Sereno Sereno 21 60 1012 vento: Nord NO 25.9
30 Agosto 2026 22:24 tempo osservato: Sereno Sereno 23 53 1012 vento: Nord NO 29.6
30 Agosto 2026 21:52 tempo osservato: Sereno Sereno 23 53 1010 vento: Nord SO 16.7
30 Agosto 2026 20:52 tempo osservato: Sereno Sereno 25 50 1009 vento: Nord SO 16.7
30 Agosto 2026 19:52 tempo osservato: Sereno Sereno 27 47 1009 vento: Nord SO 14.8
30 Agosto 2026 18:52 tempo osservato: Sereno Sereno 30 37 1009 vento: Nord SO 18.5
30 Agosto 2026 17:52 tempo osservato: Sereno Sereno 32 29 1009 vento: Nord O/SO 22.2
30 Agosto 2026 16:52 tempo osservato: Sereno Sereno 33 27 1008 vento: Nord SO 25.9
30 Agosto 2026 15:52 tempo osservato: Sereno Sereno 32 27 1009 vento: Nord O/SO 18.5
30 Agosto 2026 14:52 tempo osservato: Sereno Sereno 32 33 1009 vento: Nord O/NO 13
30 Agosto 2026 13:52 tempo osservato: Sereno Sereno 32 31 1009 vento: Nord O/NO 20.3
30 Agosto 2026 12:52 tempo osservato: Sereno Sereno 29 35 1010 vento: Nord O 25.9
30 Agosto 2026 11:52 tempo osservato: Sereno Sereno 29 35 1010 vento: Nord O 37
30 Agosto 2026 10:52 tempo osservato: Sereno Sereno 28 37 1010 vento: Nord O 31.5
30 Agosto 2026 09:52 tempo osservato: Sereno Sereno 27 39 1010 vento: Nord O 33.3
30 Agosto 2026 08:52 tempo osservato: Sereno Sereno 23 53 1010 vento: Nord O/SO 14.8
30 Agosto 2026 07:52 tempo osservato: Sereno Sereno 18 77 1009 vento: Nord SO 16.7
30 Agosto 2026 06:52 tempo osservato: Sereno Sereno 17 77 1010 vento: Nord SO 11.1
30 Agosto 2026 05:52 tempo osservato: Sereno Sereno 18 77 1010 vento: Nord SO 9.3
30 Agosto 2026 04:52 tempo osservato: Sereno Sereno 20 68 1009 vento: Nord NO 7.4
30 Agosto 2026 03:52 tempo osservato: Sereno Sereno 20 72 1009 vento: Nord SO 11.1
30 Agosto 2026 02:52 tempo osservato: Sereno Sereno 22 60 1009 vento: Nord N 0
30 Agosto 2026 01:52 tempo osservato: Sereno Sereno 24 53 1009 vento: Nord O/SO 14.8